메인 페이지
METAR-TAF:

METAR-TAF

공항 :

Afonsos

리우데자네이루, 리우데자네이루, 브라질

위도: 22-52S, 경도: 043-22W, 고도: 34m

현재 날씨관측

예보는 4 시간 26분 전, 22:00시(UTC)에 발표되었습니다.
동남동2kt
온도 30°C
습도 62%
기압 1008 hPa
시정 10km 이상
1500m 미만 상공 구름 및 적란운 없음

METAR: SBAF 022200Z 12002KT CAVOK 30/22 Q1008

시각: 23:26 (02:26 UTC)

예보

예보는 5 시간 26분 전, 21:00시(UTC)에 발표되었습니다.
예보 대상 시간: 03일 00시부터 03일 12시까지 (UTC)
남남동7kt
시정 10km 이상
고도 2500ft 상공 구름 조금
전환 중
03일 03시부터 03일 05시까지 (UTC)
고도 2000ft 상공 구름 보통
전환 중
03일 09시부터 03일 11시까지 (UTC)
남동5kt
고도 2500ft 상공 구름 조금

TAF: SBAF 022100Z 0300/0312 15007KT 9999 FEW025 TN22/0308Z TX26/0311Z BECMG 0303/0305 SCT020 BECMG 0309/0311 13005KT FEW025 RMK PEW

4,000개 이상의 공항 관측 자료 및 예보 (METAR 및 TAF 보고).

지도상에서 검색 가능한 기상관측소가 노란 점과 빨간 점으로 표시되어 있습니다.

기상관측소 명을 보려면 표시 위로 마우스를 이동하세요.

날씨 관측과 예보를 보려면 클릭하세요.

지도 변경 : 확대하려면 엑스 표시가 있는 녹색 버튼, 축소하려면 빼기 표시가 있는 녹색 버튼, 다음 페이지의 지도를 보려면 녹색 화살표를 클릭하세요.


METAR-TAF: